Time;durP1;ratioP1;P1;durP2;ratioP2;P2;SDS_P1;SDS_P2;PMS_P1;PMS_P2;Temp;Humidity;BMP_temperature;BMP_pressure;BME280_temperature;BME280_humidity;BME280_pressure;Samples;Min_cycle;Max_cycle;Signal;HPM_P1;HPM_P2
2021/06/04 00:03:27;;;;;;;4.27;3.70;;;;;;;18.77;100.00;99469.53;10499121;28;20179;-74
2021/06/04 00:08:49;;;;;;;3.40;2.73;;;;;;;18.74;100.00;99464.06;10497762;28;20535;-73
2021/06/04 00:14:13;;;;;;;4.00;3.70;;;;;;;18.65;100.00;99459.19;10498971;28;20685;-74
2021/06/04 00:19:34;;;;;;;4.77;3.00;;;;;;;18.86;100.00;99464.09;10498877;28;20182;-74
2021/06/04 00:24:56;;;;;;;5.20;2.90;;;;;;;18.86;100.00;99466.88;10497237;28;20178;-75
2021/06/04 00:30:16;;;;;;;2.83;2.63;;;;;;;18.75;100.00;99466.41;10497497;28;20175;-73
2021/06/04 00:35:38;;;;;;;6.00;3.87;;;;;;;18.71;100.00;99471.31;10496769;28;20276;-76
2021/06/04 00:41:03;;;;;;;5.03;3.60;;;;;;;18.76;100.00;99473.56;10498198;28;20175;-74
2021/06/04 00:46:23;;;;;;;4.17;3.77;;;;;;;18.79;100.00;99472.69;10497940;28;20187;-72
2021/06/04 00:51:52;;;;;;;3.13;2.83;;;;;;;18.77;100.00;99468.78;10495677;28;20216;-75
2021/06/04 00:57:12;;;;;;;3.80;3.50;;;;;;;18.81;100.00;99470.22;10497366;28;20653;-73
2021/06/04 01:02:32;;;;;;;6.50;3.50;;;;;;;18.89;100.00;99470.78;10497454;28;20175;-74
2021/06/04 01:08:10;;;;;;;4.60;3.50;;;;;;;18.73;100.00;99468.88;10495196;28;20175;-75
2021/06/04 01:13:34;;;;;;;3.90;3.60;;;;;;;18.67;100.00;99469.88;10497454;28;20174;-75
2021/06/04 01:19:41;;;;;;;5.10;3.83;;;;;;;18.51;100.00;99469.94;10505270;28;20203;-72
2021/06/04 01:25:11;;;;;;;4.73;3.70;;;;;;;18.37;100.00;99467.59;10503128;28;20191;-75
2021/06/04 01:30:36;;;;;;;3.90;3.27;;;;;;;18.29;100.00;99469.00;10505404;28;20618;-74
2021/06/04 01:35:59;;;;;;;3.77;3.43;;;;;;;18.34;100.00;99470.44;10503180;28;20309;-74
2021/06/04 01:41:23;;;;;;;4.17;3.77;;;;;;;18.27;100.00;99477.03;10505174;28;20174;-74
2021/06/04 01:46:48;;;;;;;3.43;3.20;;;;;;;18.32;100.00;99475.69;10504781;28;20191;-74
2021/06/04 01:52:14;;;;;;;6.57;3.43;;;;;;;18.39;100.00;99475.50;10503279;28;20633;-74
2021/06/04 01:57:41;;;;;;;3.40;3.13;;;;;;;18.28;100.00;99480.56;10503937;28;20214;-73
2021/06/04 02:03:01;;;;;;;3.67;3.37;;;;;;;18.28;100.00;99483.38;10504090;28;20174;-74
2021/06/04 02:08:32;;;;;;;3.07;2.87;;;;;;;18.32;100.00;99473.69;10502661;28;20202;-74
2021/06/04 02:13:51;;;;;;;4.30;3.90;;;;;;;18.38;100.00;99473.94;10503702;28;20267;-74
2021/06/04 02:19:22;;;;;;;4.10;3.70;;;;;;;18.41;100.00;99467.47;10502855;28;20202;-73
2021/06/04 02:24:48;;;;;;;4.30;3.73;;;;;;;18.43;100.00;99466.56;10501978;28;20617;-74
2021/06/04 02:30:35;;;;;;;3.60;3.30;;;;;;;18.41;100.00;99469.03;10502947;28;20262;-73
2021/06/04 02:36:00;;;;;;;4.67;4.27;;;;;;;18.36;100.00;99471.59;10499819;28;20599;-75
2021/06/04 02:41:53;;;;;;;4.20;3.90;;;;;;;18.37;100.00;99472.34;10502736;28;20229;-73
2021/06/04 02:47:21;;;;;;;5.40;3.83;;;;;;;18.36;100.00;99471.59;10501108;28;20724;-75
2021/06/04 02:52:43;;;;;;;4.60;4.20;;;;;;;18.35;100.00;99480.38;10500916;28;20171;-75
2021/06/04 02:58:02;;;;;;;6.07;4.70;;;;;;;18.34;100.00;99464.88;10501592;28;20668;-74
2021/06/04 03:03:22;;;;;;;7.40;5.27;;;;;;;18.36;100.00;99462.44;10501840;28;20174;-73
2021/06/04 03:08:44;;;;;;;4.00;3.63;;;;;;;18.45;100.00;99480.84;10500418;28;20183;-74
2021/06/04 03:14:06;;;;;;;5.53;3.97;;;;;;;18.27;100.00;99476.22;10501571;28;20174;-74
2021/06/04 03:19:26;;;;;;;9.77;4.40;;;;;;;18.14;100.00;99478.94;10501337;28;20269;-73
2021/06/04 03:24:46;;;;;;;4.93;4.47;;;;;;;18.06;100.00;99474.00;10499762;28;20218;-73
2021/06/04 03:30:07;;;;;;;4.17;3.50;;;;;;;18.08;100.00;99475.13;10500750;28;20183;-73
2021/06/04 03:35:28;;;;;;;4.50;3.60;;;;;;;17.95;100.00;99479.88;10499012;28;20230;-73
2021/06/04 03:40:47;;;;;;;8.13;3.80;;;;;;;17.96;100.00;99489.78;10498770;28;20649;-73
2021/06/04 03:46:06;;;;;;;4.50;4.10;;;;;;;17.87;100.00;99492.44;10499975;28;20218;-73
2021/06/04 03:51:30;;;;;;;4.30;3.90;;;;;;;17.81;100.00;99491.38;10498517;28;20525;-73
2021/06/04 03:56:50;;;;;;;8.40;4.33;;;;;;;17.89;100.00;99497.53;10498425;28;20591;-73
2021/06/04 04:02:14;;;;;;;5.53;4.43;;;;;;;18.00;100.00;99495.25;10499253;28;20175;-73
2021/06/04 04:07:33;;;;;;;5.40;4.50;;;;;;;18.10;100.00;99502.53;10497832;28;20182;-73
2021/06/04 04:12:53;;;;;;;4.10;3.80;;;;;;;18.00;100.00;99493.25;10498994;28;20182;-73
2021/06/04 04:18:12;;;;;;;8.63;5.07;;;;;;;18.04;100.00;99507.06;10498307;28;20205;-73
2021/06/04 04:23:35;;;;;;;6.50;4.20;;;;;;;18.15;100.00;99502.00;10496451;28;20183;-73
2021/06/04 04:28:55;;;;;;;4.83;4.40;;;;;;;18.26;100.00;99502.50;10498415;28;20179;-73
2021/06/04 04:34:14;;;;;;;4.07;3.67;;;;;;;18.20;100.00;99510.63;10497135;28;20603;-74
2021/06/04 04:39:37;;;;;;;3.87;3.50;;;;;;;18.13;100.00;99513.59;10495812;28;20182;-73
2021/06/04 04:44:56;;;;;;;4.50;4.10;;;;;;;18.10;100.00;99508.09;10497979;28;20281;-73
2021/06/04 04:50:17;;;;;;;5.40;4.00;;;;;;;18.14;100.00;99519.94;10496033;28;20183;-73
2021/06/04 04:55:39;;;;;;;5.30;4.33;;;;;;;18.15;100.00;99525.06;10496264;28;20289;-74
2021/06/04 05:00:59;;;;;;;7.73;4.10;;;;;;;18.20;100.00;99523.75;10497664;28;20603;-75
2021/06/04 05:06:18;;;;;;;4.30;3.70;;;;;;;18.38;100.00;99521.28;10495262;28;20555;-74
2021/06/04 05:11:37;;;;;;;6.23;3.60;;;;;;;18.58;100.00;99526.25;10497509;28;20179;-75
2021/06/04 05:16:56;;;;;;;6.23;4.30;;;;;;;18.81;100.00;99525.19;10496949;28;20206;-76
2021/06/04 05:22:16;;;;;;;7.50;4.80;;;;;;;19.10;100.00;99523.91;10495931;28;20182;-74
2021/06/04 05:27:36;;;;;;;5.17;3.97;;;;;;;19.09;100.00;99524.34;10496999;28;20175;-74
2021/06/04 05:32:56;;;;;;;4.87;4.30;;;;;;;19.01;100.00;99528.56;10496729;28;20611;-74
2021/06/04 05:38:16;;;;;;;4.93;4.33;;;;;;;19.01;100.00;99523.00;10495103;28;20202;-76
2021/06/04 05:43:38;;;;;;;4.80;4.13;;;;;;;19.11;100.00;99533.84;10496726;28;20575;-74
2021/06/04 05:48:57;;;;;;;7.93;5.03;;;;;;;19.15;100.00;99530.94;10496703;28;20167;-75
2021/06/04 05:54:18;;;;;;;4.63;4.23;;;;;;;19.20;100.00;99538.75;10495034;28;20218;-75
2021/06/04 05:59:37;;;;;;;4.73;4.20;;;;;;;19.31;100.00;99539.97;10496448;28;20179;-76
2021/06/04 06:04:56;;;;;;;6.53;4.20;;;;;;;19.66;100.00;99536.06;10504059;28;20625;-74
2021/06/04 06:10:16;;;;;;;6.47;5.37;;;;;;;20.00;100.00;99544.50;10502738;28;20179;-76
2021/06/04 06:15:37;;;;;;;10.07;6.70;;;;;;;20.29;100.00;99552.22;10502801;28;20206;-74
2021/06/04 06:20:58;;;;;;;6.00;5.40;;;;;;;20.60;100.00;99550.28;10502251;28;20179;-73
2021/06/04 06:26:25;;;;;;;7.43;5.10;;;;;;;20.99;100.00;99550.44;10503443;28;20175;-76
2021/06/04 06:31:48;;;;;;;6.63;5.00;;;;;;;21.35;100.00;99558.22;10502927;28;20171;-75
2021/06/04 06:37:07;;;;;;;6.60;6.00;;;;;;;22.10;100.00;99563.94;10501437;28;20248;-74
2021/06/04 06:42:26;;;;;;;6.73;5.90;;;;;;;22.59;100.00;99571.78;10502599;28;20186;-74
2021/06/04 06:47:46;;;;;;;6.37;5.77;;;;;;;23.12;100.00;99575.00;10502593;28;20175;-75
2021/06/04 06:53:07;;;;;;;7.20;5.17;;;;;;;23.35;100.00;99573.06;10500204;28;20210;-75
2021/06/04 06:58:27;;;;;;;5.20;4.70;;;;;;;24.14;95.93;99572.41;10500738;28;20660;-74
2021/06/04 07:03:46;;;;;;;14.30;5.23;;;;;;;24.96;90.94;99570.50;10501927;28;20175;-74
2021/06/04 07:09:07;;;;;;;6.23;5.20;;;;;;;25.12;92.02;99563.13;10500286;28;20182;-75
2021/06/04 07:14:31;;;;;;;9.53;6.73;;;;;;;25.48;88.98;99574.00;10500529;28;20572;-74
2021/06/04 07:19:50;;;;;;;10.30;6.70;;;;;;;25.51;90.59;99567.41;10501351;28;20175;-75
2021/06/04 07:25:14;;;;;;;6.13;5.43;;;;;;;25.65;90.27;99580.66;10499785;28;20614;-75
2021/06/04 07:30:37;;;;;;;5.27;4.77;;;;;;;25.81;67.10;99582.25;10500747;28;20475;-75
2021/06/04 07:35:59;;;;;;;5.47;4.97;;;;;;;25.78;64.90;99580.38;10498559;28;20230;-76
2021/06/04 07:41:20;;;;;;;5.10;4.63;;;;;;;25.57;63.72;99587.19;10500275;28;20254;-76
2021/06/04 07:46:40;;;;;;;6.83;4.43;;;;;;;25.55;65.63;99586.91;10500190;28;20194;-76
2021/06/04 07:51:59;;;;;;;4.33;3.70;;;;;;;25.45;66.18;99580.59;10497624;28;20630;-74
2021/06/04 07:57:18;;;;;;;3.50;3.30;;;;;;;25.33;67.18;99586.53;10499319;28;20202;-76
2021/06/04 08:02:37;;;;;;;4.77;4.27;;;;;;;25.56;65.34;99580.03;10498772;28;20183;-75
2021/06/04 08:07:57;;;;;;;4.93;4.47;;;;;;;25.65;63.77;99583.50;10496895;28;20174;-76
2021/06/04 08:13:19;;;;;;;5.03;4.63;;;;;;;25.41;63.51;99584.88;10499136;28;20174;-75
2021/06/04 08:18:39;;;;;;;5.07;4.57;;;;;;;25.71;62.86;99592.03;10498265;28;20293;-76
2021/06/04 08:23:58;;;;;;;4.93;4.10;;;;;;;26.14;61.46;99586.28;10497177;28;20527;-75
2021/06/04 08:29:18;;;;;;;4.77;4.27;;;;;;;26.53;57.71;99591.22;10498475;28;20182;-75
2021/06/04 08:34:38;;;;;;;5.23;4.73;;;;;;;27.65;56.58;99590.59;10497876;28;20214;-76
2021/06/04 08:39:57;;;;;;;5.13;4.30;;;;;;;27.75;56.63;99589.13;10496852;28;20265;-75
2021/06/04 08:45:30;;;;;;;4.60;4.23;;;;;;;28.00;54.68;99583.38;10497982;28;20234;-76
2021/06/04 08:50:56;;;;;;;4.57;4.17;;;;;;;28.59;53.71;99573.66;10496595;28;20187;-76
2021/06/04 08:56:23;;;;;;;4.87;4.50;;;;;;;29.32;50.44;99564.84;10497683;28;20210;-74
2021/06/04 09:02:03;;;;;;;4.60;4.20;;;;;;;29.25;51.10;99551.94;10511143;28;20213;-75
2021/06/04 09:07:27;;;;;;;4.97;4.57;;;;;;;28.79;51.58;99567.84;10496489;28;20183;-74
2021/06/04 09:13:10;;;;;;;5.07;4.67;;;;;;;28.79;52.71;99573.50;10496273;28;20182;-75
2021/06/04 09:18:47;;;;;;;4.20;3.80;;;;;;;29.11;51.52;99557.09;10496902;28;20206;-74
2021/06/04 09:24:12;;;;;;;5.00;4.60;;;;;;;29.16;51.09;99562.75;10495987;28;20191;-75
2021/06/04 09:29:32;;;;;;;4.47;4.17;;;;;;;29.53;48.85;99566.16;10497003;28;20178;-75
2021/06/04 09:35:17;;;;;;;4.33;4.00;;;;;;;30.74;48.32;99564.56;10495878;28;20620;-75
2021/06/04 09:40:38;;;;;;;5.50;4.40;;;;;;;30.93;44.07;99560.59;10504775;28;20621;-75
2021/06/04 09:46:01;;;;;;;6.20;4.30;;;;;;;29.66;46.47;99563.56;10503851;28;20546;-75
2021/06/04 09:51:23;;;;;;;4.60;4.20;;;;;;;29.78;47.32;99562.25;10503564;28;20552;-75
2021/06/04 09:56:42;;;;;;;5.50;4.77;;;;;;;30.31;47.63;99565.53;10504215;28;20218;-75
2021/06/04 10:02:03;;;;;;;5.57;4.90;;;;;;;31.35;46.19;99562.91;10504262;28;20206;-77
2021/06/04 10:07:23;;;;;;;4.27;3.90;;;;;;;31.36;45.27;99552.28;10501751;28;20544;-75
2021/06/04 10:12:46;;;;;;;4.70;4.40;;;;;;;32.22;40.95;99557.72;10503881;28;20178;-76
2021/06/04 10:18:35;;;;;;;4.40;4.00;;;;;;;32.10;41.24;99557.06;10503204;28;20215;-76
2021/06/04 10:23:56;;;;;;;4.60;4.30;;;;;;;32.75;40.66;99551.88;10502060;28;20174;-76
2021/06/04 10:29:16;;;;;;;4.20;3.87;;;;;;;33.14;42.03;99530.06;10503287;28;20179;-76
2021/06/04 10:34:41;;;;;;;3.47;3.17;;;;;;;34.27;38.45;99527.78;10502421;28;20230;-76
2021/06/04 10:40:08;;;;;;;4.93;4.00;;;;;;;34.41;36.45;99509.34;10501582;28;20170;-76
2021/06/04 10:45:33;;;;;;;4.30;4.00;;;;;;;34.56;37.22;99510.31;10501649;28;20603;-77
2021/06/04 10:51:01;;;;;;;3.60;3.40;;;;;;;34.64;35.19;99502.59;10499151;28;20599;-76
2021/06/04 10:56:40;;;;;;;3.50;3.23;;;;;;;34.84;35.98;99506.81;10501158;28;20205;-76
2021/06/04 11:02:26;;;;;;;3.47;3.27;;;;;;;35.28;35.44;99495.09;10502087;28;20182;-76
2021/06/04 11:07:53;;;;;;;3.63;3.33;;;;;;;35.61;33.65;99505.72;10506394;28;20178;-74
2021/06/04 11:13:31;;;;;;;3.50;3.27;;;;;;;35.93;33.70;99498.34;10514918;28;20190;-75
2021/06/04 11:18:57;;;;;;;2.63;2.43;;;;;;;36.02;31.47;99486.41;10500377;28;20174;-75
2021/06/04 11:24:53;;;;;;;2.40;2.27;;;;;;;36.04;30.45;99475.91;10499620;28;20182;-76
2021/06/04 11:30:32;;;;;;;4.63;2.93;;;;;;;36.12;32.17;99481.66;10500543;28;20557;-74
2021/06/04 11:35:58;;;;;;;2.73;2.53;;;;;;;36.40;29.28;99473.03;10498737;28;20238;-76
2021/06/04 11:41:40;;;;;;;5.23;2.57;;;;;;;36.84;28.07;99467.47;10498910;28;20190;-75
2021/06/04 11:47:11;;;;;;;3.83;3.63;;;;;;;37.45;26.78;99465.50;10498779;28;20205;-75
2021/06/04 11:52:43;;;;;;;1.97;1.73;;;;;;;36.44;26.45;99453.38;10498695;28;20182;-76
2021/06/04 11:58:38;;;;;;;2.10;2.00;;;;;;;33.69;32.40;99452.84;10499289;28;20170;-73
2021/06/04 12:04:00;;;;;;;2.43;2.30;;;;;;;34.92;29.26;99456.97;10504501;28;20269;-73
2021/06/04 12:09:31;;;;;;;2.37;2.13;;;;;;;36.12;29.08;99441.56;10496404;28;20193;-75
2021/06/04 12:14:59;;;;;;;2.23;1.90;;;;;;;37.00;27.87;99437.50;10499094;28;20198;-75
2021/06/04 12:20:37;;;;;;;2.60;2.40;;;;;;;34.33;32.08;99426.34;10497524;28;20284;-74
2021/06/04 12:26:00;;;;;;;2.90;1.80;;;;;;;35.92;30.60;99419.47;10498414;28;20198;-73
2021/06/04 12:31:22;;;;;;;2.20;2.00;;;;;;;35.46;29.86;99414.75;10498195;28;20539;-74
2021/06/04 12:36:41;;;;;;;3.40;2.87;;;;;;;34.85;30.75;99405.41;10497002;28;20261;-73
2021/06/04 12:42:21;;;;;;;2.40;2.30;;;;;;;33.74;32.08;99411.25;10498166;28;20202;-74
2021/06/04 12:47:52;;;;;;;2.60;2.40;;;;;;;32.04;34.42;99421.75;10497421;28;20206;-74
2021/06/04 12:53:13;;;;;;;2.63;2.43;;;;;;;30.96;37.54;99416.66;10481295;28;20205;-74
2021/06/04 12:58:34;;;;;;;2.90;2.70;;;;;;;29.76;39.13;99418.13;10496615;28;20578;-73
2021/06/04 13:03:58;;;;;;;2.67;2.47;;;;;;;28.82;42.85;99430.06;10497617;28;20166;-73
2021/06/04 13:09:31;;;;;;;3.10;2.90;;;;;;;27.06;52.88;99445.44;10495082;28;20207;-73
2021/06/04 13:14:53;;;;;;;3.67;3.37;;;;;;;26.01;59.59;99439.19;10495631;28;20573;-74
2021/06/04 13:20:14;;;;;;;2.47;2.27;;;;;;;25.42;59.45;99437.91;10496430;28;20183;-74
2021/06/04 13:25:34;;;;;;;3.37;3.10;;;;;;;24.30;67.55;99439.78;10495625;28;20210;-76
2021/06/04 13:31:01;;;;;;;2.93;2.73;;;;;;;23.17;82.49;99443.22;10496987;28;20178;-77
2021/06/04 13:36:21;;;;;;;3.63;3.30;;;;;;;22.94;89.14;99457.19;10508291;28;20227;-80
2021/06/04 13:41:58;;;;;;;5.70;3.17;;;;;;;22.79;100.00;99440.22;10496508;28;20210;-79
2021/06/04 13:47:41;;;;;;;3.93;3.60;;;;;;;22.09;100.00;99453.09;10496163;28;20676;-79
2021/06/04 13:53:09;;;;;;;2.80;2.60;;;;;;;22.32;100.00;99444.06;10495384;28;20182;-81
2021/06/04 13:58:31;;;;;;;8.00;3.47;;;;;;;22.75;100.00;99455.66;10496134;28;20532;-80
2021/06/04 14:03:52;;;;;;;3.30;3.00;;;;;;;22.76;100.00;99458.00;10496411;28;20174;-82
2021/06/04 14:09:12;;;;;;;4.90;3.77;;;;;;;22.48;100.00;99455.72;10493847;28;20625;-81
2021/06/04 14:14:38;;;;;;;4.00;3.60;;;;;;;22.36;100.00;99512.75;10496234;28;20179;-82
2021/06/04 14:20:05;;;;;;;3.23;2.80;;;;;;;21.98;100.00;99515.19;10496072;28;20171;-81
2021/06/04 14:25:25;;;;;;;4.03;1.90;;;;;;;21.67;100.00;99520.13;10500632;28;20673;-79
2021/06/04 14:30:53;;;;;;;2.40;2.30;;;;;;;21.67;100.00;99494.16;10502555;28;20190;-82
2021/06/04 14:36:20;;;;;;;1.77;1.33;;;;;;;22.07;100.00;99472.41;10499699;28;20218;-81
2021/06/04 14:41:39;;;;;;;2.10;1.33;;;;;;;22.53;100.00;99463.53;10502331;28;20203;-80
2021/06/04 14:47:18;;;;;;;1.30;1.20;;;;;;;23.01;100.00;99466.03;10500968;28;20213;-81
2021/06/04 14:52:37;;;;;;;1.40;1.30;;;;;;;23.60;100.00;99463.09;10500819;28;20661;-81
2021/06/04 14:58:01;;;;;;;1.47;1.30;;;;;;;23.54;100.00;99472.69;10502230;28;20174;-81
2021/06/04 15:03:21;;;;;;;1.30;1.20;;;;;;;23.54;100.00;99478.28;10501843;28;20533;-81
2021/06/04 15:08:43;;;;;;;1.70;1.37;;;;;;;23.57;98.01;99450.03;10499987;28;20207;-81
2021/06/04 15:14:03;;;;;;;3.70;2.50;;;;;;;23.80;89.13;99446.47;10501319;28;20167;-81
2021/06/04 15:19:21;;;;;;;1.83;1.73;;;;;;;24.59;88.05;99431.41;10501367;28;20174;-80
2021/06/04 15:24:43;;;;;;;1.73;1.63;;;;;;;26.03;79.27;99417.72;10499957;28;20178;-80
2021/06/04 15:30:05;;;;;;;2.07;1.70;;;;;;;27.11;64.02;99399.53;10501041;28;20174;-79
2021/06/04 15:35:27;;;;;;;3.00;1.43;;;;;;;28.23;59.22;99406.03;10499455;28;20210;-80
2021/06/04 15:40:47;;;;;;;5.17;1.73;;;;;;;26.75;65.41;99405.91;10499463;28;20198;-79
2021/06/04 15:46:06;;;;;;;1.60;1.43;;;;;;;26.63;61.77;99402.72;10499143;28;20210;-79
2021/06/04 15:51:25;;;;;;;2.67;2.27;;;;;;;26.63;63.17;99391.44;10498767;28;20633;-77
2021/06/04 15:56:44;;;;;;;2.23;2.13;;;;;;;26.75;62.54;99388.97;10499867;28;20183;-79
2021/06/04 16:02:04;;;;;;;2.97;2.63;;;;;;;26.25;62.60;99378.47;10498547;28;20633;-77
2021/06/04 16:07:24;;;;;;;3.33;2.40;;;;;;;25.44;69.95;99364.94;10497694;28;20211;-77
2021/06/04 16:12:44;;;;;;;3.00;2.67;;;;;;;25.11;70.24;99372.94;10499151;28;20198;-78
2021/06/04 16:18:05;;;;;;;3.90;2.50;;;;;;;24.04;73.70;99370.50;10497990;28;20178;-80
2021/06/04 16:23:25;;;;;;;2.23;2.13;;;;;;;23.83;77.69;99374.47;10497523;28;20166;-77
2021/06/04 16:28:44;;;;;;;2.40;2.20;;;;;;;24.13;76.32;99372.00;10498171;28;20206;-76
2021/06/04 16:34:06;;;;;;;1.90;1.80;;;;;;;24.33;75.11;99362.88;10497983;28;20256;-77
2021/06/04 16:39:25;;;;;;;2.73;2.20;;;;;;;24.11;74.94;99364.53;10496929;28;20199;-79
2021/06/04 16:44:44;;;;;;;3.67;2.77;;;;;;;24.25;74.18;99364.53;10498152;28;20172;-77
2021/06/04 16:50:05;;;;;;;6.73;2.50;;;;;;;24.18;74.86;99359.28;10497880;28;20261;-77
2021/06/04 16:55:28;;;;;;;2.10;2.00;;;;;;;24.32;78.38;99353.69;10496656;28;20178;-79
2021/06/04 17:00:50;;;;;;;2.50;2.30;;;;;;;24.73;75.94;99357.44;10497757;28;20171;-78
2021/06/04 17:06:12;;;;;;;3.43;2.53;;;;;;;24.95;72.80;99355.00;10495941;28;20247;-78
2021/06/04 17:11:31;;;;;;;3.10;2.73;;;;;;;25.06;73.12;99356.69;10497024;28;20625;-76
2021/06/04 17:16:50;;;;;;;2.67;2.20;;;;;;;25.58;73.07;99361.28;10496264;28;20174;-76
2021/06/04 17:22:09;;;;;;;2.10;1.70;;;;;;;25.54;71.93;99351.47;10496214;28;20166;-77
2021/06/04 17:27:28;;;;;;;2.13;1.93;;;;;;;25.27;75.06;99349.88;10495499;28;20285;-76
2021/06/04 17:32:47;;;;;;;3.20;2.80;;;;;;;24.75;78.26;99346.47;10496649;28;20222;-77
2021/06/04 17:38:06;;;;;;;3.40;2.27;;;;;;;24.51;80.03;99360.69;10495442;28;20178;-73
2021/06/04 17:43:26;;;;;;;2.37;2.17;;;;;;;24.25;82.83;99354.06;10496713;28;20171;-75
2021/06/04 17:48:45;;;;;;;2.37;2.17;;;;;;;23.94;85.83;99366.25;10496023;28;20273;-76
2021/06/04 17:54:04;;;;;;;3.63;2.17;;;;;;;23.82;87.92;99373.69;10495342;28;20171;-77
2021/06/04 17:59:23;;;;;;;2.30;2.10;;;;;;;23.67;87.64;99372.84;10501122;28;20650;-77
2021/06/04 18:04:42;;;;;;;2.73;2.50;;;;;;;23.41;87.65;99374.59;10503836;28;20182;-74
2021/06/04 18:10:01;;;;;;;5.30;2.30;;;;;;;23.26;88.77;99377.84;10501843;28;20178;-75
2021/06/04 18:15:26;;;;;;;2.77;2.57;;;;;;;23.14;90.99;99390.81;10503695;28;20621;-76
2021/06/04 18:20:50;;;;;;;2.40;2.20;;;;;;;22.98;89.15;99394.00;10502429;28;20522;-76
2021/06/04 18:26:10;;;;;;;2.87;2.47;;;;;;;22.85;87.90;99393.44;10502262;28;20206;-73
2021/06/04 18:31:30;;;;;;;2.93;2.50;;;;;;;22.78;87.17;99393.78;10502388;28;20171;-77
2021/06/04 18:36:49;;;;;;;4.30;3.13;;;;;;;22.51;86.53;99374.25;10501719;28;20703;-76
2021/06/04 18:42:08;;;;;;;2.70;2.50;;;;;;;22.32;88.57;99380.38;10502669;28;20202;-77
2021/06/04 18:47:27;;;;;;;2.17;1.97;;;;;;;22.24;91.74;99378.34;10502327;28;20693;-78
2021/06/04 18:52:49;;;;;;;2.50;2.30;;;;;;;22.24;91.62;99375.53;10501064;28;20174;-77
2021/06/04 18:58:10;;;;;;;2.43;2.23;;;;;;;22.33;92.57;99367.91;10502153;28;20538;-76
2021/06/04 19:03:39;;;;;;;2.50;2.30;;;;;;;21.78;100.00;99371.22;10502105;28;20257;-76
2021/06/04 19:08:59;;;;;;;5.37;2.80;;;;;;;21.57;100.00;99376.97;10483752;28;20207;-77
2021/06/04 19:14:19;;;;;;;2.53;2.30;;;;;;;21.47;100.00;99364.97;10500611;28;20179;-76
2021/06/04 19:19:37;;;;;;;3.10;2.63;;;;;;;21.53;100.00;99365.13;10500307;28;20624;-76
2021/06/04 19:24:56;;;;;;;2.53;2.03;;;;;;;21.50;100.00;99377.25;10498863;28;20178;-76
2021/06/04 19:30:18;;;;;;;4.70;3.80;;;;;;;21.19;100.00;99379.38;10500910;28;20175;-75
2021/06/04 19:35:38;;;;;;;3.13;2.83;;;;;;;20.99;100.00;99385.38;10500256;28;20218;-75
2021/06/04 19:41:06;;;;;;;4.30;2.10;;;;;;;20.93;100.00;99383.66;10500513;28;20198;-76
2021/06/04 19:46:26;;;;;;;3.63;3.00;;;;;;;20.72;100.00;99394.91;10500202;28;20289;-76
2021/06/04 19:51:47;;;;;;;3.70;3.47;;;;;;;20.63;100.00;99394.84;10497697;28;20206;-75
2021/06/04 19:57:07;;;;;;;2.40;2.10;;;;;;;20.54;100.00;99394.81;10499316;28;20191;-75
2021/06/04 20:02:26;;;;;;;4.07;2.93;;;;;;;20.63;100.00;99392.81;10494052;28;20179;-77
2021/06/04 20:07:45;;;;;;;2.70;2.50;;;;;;;20.38;100.00;99393.00;10476531;28;20649;-74
2021/06/04 20:13:06;;;;;;;5.57;2.67;;;;;;;20.23;100.00;99391.22;10478140;28;20214;-78
2021/06/04 20:18:25;;;;;;;4.10;2.57;;;;;;;20.15;100.00;99396.28;10497863;28;20170;-77
2021/06/04 20:23:45;;;;;;;3.00;2.80;;;;;;;20.22;100.00;99393.22;10496544;28;20175;-78
2021/06/04 20:29:05;;;;;;;3.23;2.50;;;;;;;20.03;100.00;99385.19;10496931;28;20214;-78
2021/06/04 20:34:24;;;;;;;3.23;2.43;;;;;;;19.84;100.00;99374.28;10498110;28;20757;-78
2021/06/04 20:39:45;;;;;;;4.53;2.80;;;;;;;19.77;100.00;99371.75;10497054;28;20633;-77
2021/06/04 20:45:10;;;;;;;3.17;2.97;;;;;;;19.70;100.00;99374.81;10497323;28;20171;-76
2021/06/04 20:50:35;;;;;;;2.83;2.53;;;;;;;19.77;100.00;99366.19;10498029;28;20208;-77
2021/06/04 20:55:55;;;;;;;3.00;2.70;;;;;;;19.55;100.00;99374.53;10497649;28;20194;-76
2021/06/04 21:01:14;;;;;;;2.97;2.77;;;;;;;19.40;100.00;99378.25;10496723;28;20198;-77
2021/06/04 21:06:34;;;;;;;2.67;2.47;;;;;;;19.34;100.00;99391.22;10494868;28;20596;-76
2021/06/04 21:11:54;;;;;;;3.97;3.67;;;;;;;19.35;100.00;99387.22;10497719;28;20178;-76
2021/06/04 21:17:13;;;;;;;2.60;2.40;;;;;;;19.37;100.00;99399.47;10497513;28;20196;-75
2021/06/04 21:22:33;;;;;;;3.83;3.10;;;;;;;19.10;100.00;99408.81;10495220;28;20258;-76
2021/06/04 21:27:52;;;;;;;4.43;4.03;;;;;;;18.81;100.00;99413.69;10495886;28;20612;-75
2021/06/04 21:33:11;;;;;;;3.77;3.23;;;;;;;18.87;100.00;99412.69;10501037;28;20214;-75
2021/06/04 21:38:30;;;;;;;5.30;4.80;;;;;;;18.89;100.00;99420.59;10503325;28;20175;-75
2021/06/04 21:43:50;;;;;;;5.07;3.77;;;;;;;18.77;100.00;99424.19;10505059;28;20167;-75
2021/06/04 21:49:09;;;;;;;7.47;3.73;;;;;;;18.62;100.00;99423.03;10503281;28;20210;-75
2021/06/04 21:54:28;;;;;;;3.53;2.63;;;;;;;18.45;100.00;99416.00;10503384;28;20190;-75
2021/06/04 21:59:47;;;;;;;4.57;3.97;;;;;;;18.43;100.00;99419.22;10503840;28;20175;-75
2021/06/04 22:05:07;;;;;;;4.53;2.77;;;;;;;18.54;100.00;99428.06;10504167;28;20179;-75
2021/06/04 22:10:29;;;;;;;3.40;3.10;;;;;;;18.36;100.00;99426.22;10501984;28;20530;-75
2021/06/04 22:15:48;;;;;;;4.20;3.60;;;;;;;18.36;100.00;99429.00;10503970;28;20633;-79
2021/06/04 22:21:09;;;;;;;8.37;4.57;;;;;;;18.34;100.00;99448.97;10501480;28;20178;-76
2021/06/04 22:26:29;;;;;;;5.57;4.20;;;;;;;18.09;100.00;99457.22;10502303;28;20672;-78
2021/06/04 22:31:51;;;;;;;8.10;3.67;;;;;;;18.11;100.00;99456.75;10503176;28;20206;-78
2021/06/04 22:37:10;;;;;;;4.57;4.10;;;;;;;18.05;100.00;99459.28;10502154;28;20171;-78
2021/06/04 22:42:29;;;;;;;5.70;4.70;;;;;;;18.02;100.00;99449.06;10502805;28;20536;-79
2021/06/04 22:47:49;;;;;;;6.40;4.17;;;;;;;18.00;100.00;99459.06;10502548;28;20214;-77
2021/06/04 22:53:10;;;;;;;3.90;3.07;;;;;;;18.02;100.00;99473.31;10500252;28;20183;-76
2021/06/04 22:58:33;;;;;;;5.27;3.97;;;;;;;17.89;100.00;99481.59;10502434;28;20171;-76
2021/06/04 23:03:54;;;;;;;5.40;4.00;;;;;;;17.75;100.00;99473.63;10502233;28;20182;-77
2021/06/04 23:09:17;;;;;;;4.90;3.90;;;;;;;17.84;100.00;99473.03;10500146;28;20198;-76
2021/06/04 23:14:36;;;;;;;4.97;3.80;;;;;;;17.74;100.00;99468.53;10500924;28;20170;-79
2021/06/04 23:19:55;;;;;;;6.00;4.60;;;;;;;17.70;100.00;99454.72;10501409;28;20581;-76
2021/06/04 23:25:20;;;;;;;6.33;3.73;;;;;;;17.67;100.00;99443.66;10500150;28;20174;-78
2021/06/04 23:30:39;;;;;;;4.20;3.80;;;;;;;17.65;100.00;99443.31;10501021;28;20175;-77
2021/06/04 23:35:58;;;;;;;5.20;4.70;;;;;;;17.63;100.00;99434.63;10498035;28;20222;-78
2021/06/04 23:41:21;;;;;;;4.60;4.20;;;;;;;17.52;100.00;99422.22;10500576;28;20179;-78
2021/06/04 23:46:40;;;;;;;5.20;4.00;;;;;;;17.44;100.00;99427.19;10499107;28;20293;-79
2021/06/04 23:52:01;;;;;;;6.40;4.70;;;;;;;17.53;100.00;99418.97;10497966;28;20187;-76
2021/06/04 23:57:21;;;;;;;4.40;3.43;;;;;;;17.46;100.00;99407.28;10499125;28;20559;-78
